sensor_id;sensor_type;location;lat;lon;timestamp;P1;durP1;ratioP1;P2;durP2;ratioP2
53299;SDS011;39187;48.476;8.310;2024-01-06T00:00:53;3.27;;;1.90;;
53299;SDS011;39187;48.476;8.310;2024-01-06T00:03:18;2.63;;;1.60;;
53299;SDS011;39187;48.476;8.310;2024-01-06T00:05:44;2.87;;;2.30;;
53299;SDS011;39187;48.476;8.310;2024-01-06T00:08:09;5.23;;;1.60;;
53299;SDS011;39187;48.476;8.310;2024-01-06T00:10:35;3.83;;;1.70;;
53299;SDS011;39187;48.476;8.310;2024-01-06T00:13:00;2.80;;;1.70;;
53299;SDS011;39187;48.476;8.310;2024-01-06T00:15:26;2.60;;;2.50;;
53299;SDS011;39187;48.476;8.310;2024-01-06T00:17:51;4.50;;;1.60;;
53299;SDS011;39187;48.476;8.310;2024-01-06T00:20:17;2.10;;;2.00;;
53299;SDS011;39187;48.476;8.310;2024-01-06T00:22:42;4.23;;;1.80;;
53299;SDS011;39187;48.476;8.310;2024-01-06T00:25:09;3.50;;;1.50;;
53299;SDS011;39187;48.476;8.310;2024-01-06T00:27:34;6.73;;;2.20;;
53299;SDS011;39187;48.476;8.310;2024-01-06T00:30:00;3.73;;;1.73;;
53299;SDS011;39187;48.476;8.310;2024-01-06T00:32:25;2.80;;;1.77;;
53299;SDS011;39187;48.476;8.310;2024-01-06T00:34:51;7.13;;;2.73;;
53299;SDS011;39187;48.476;8.310;2024-01-06T00:37:16;2.10;;;1.90;;
53299;SDS011;39187;48.476;8.310;2024-01-06T00:39:42;4.33;;;1.53;;
53299;SDS011;39187;48.476;8.310;2024-01-06T00:42:07;3.90;;;2.00;;
53299;SDS011;39187;48.476;8.310;2024-01-06T00:44:34;3.40;;;2.30;;
53299;SDS011;39187;48.476;8.310;2024-01-06T00:47:01;1.90;;;1.70;;
53299;SDS011;39187;48.476;8.310;2024-01-06T00:49:26;2.20;;;2.00;;
53299;SDS011;39187;48.476;8.310;2024-01-06T00:51:52;4.93;;;1.50;;
53299;SDS011;39187;48.476;8.310;2024-01-06T00:54:17;6.87;;;2.07;;
53299;SDS011;39187;48.476;8.310;2024-01-06T00:56:43;2.07;;;1.27;;
53299;SDS011;39187;48.476;8.310;2024-01-06T00:59:08;6.10;;;1.80;;
53299;SDS011;39187;48.476;8.310;2024-01-06T01:01:34;1.80;;;1.70;;
53299;SDS011;39187;48.476;8.310;2024-01-06T01:03:59;5.40;;;2.23;;
53299;SDS011;39187;48.476;8.310;2024-01-06T01:06:25;4.00;;;2.40;;
53299;SDS011;39187;48.476;8.310;2024-01-06T01:08:50;1.97;;;1.43;;
53299;SDS011;39187;48.476;8.310;2024-01-06T01:11:16;2.40;;;1.70;;
53299;SDS011;39187;48.476;8.310;2024-01-06T01:13:41;5.50;;;1.63;;
53299;SDS011;39187;48.476;8.310;2024-01-06T01:16:07;1.87;;;1.63;;
53299;SDS011;39187;48.476;8.310;2024-01-06T01:18:32;10.63;;;1.97;;
53299;SDS011;39187;48.476;8.310;2024-01-06T01:20:58;1.87;;;1.77;;
53299;SDS011;39187;48.476;8.310;2024-01-06T01:23:23;7.13;;;1.80;;
53299;SDS011;39187;48.476;8.310;2024-01-06T01:25:49;16.17;;;3.77;;
53299;SDS011;39187;48.476;8.310;2024-01-06T01:28:14;5.10;;;1.47;;
53299;SDS011;39187;48.476;8.310;2024-01-06T01:30:39;2.30;;;2.20;;
53299;SDS011;39187;48.476;8.310;2024-01-06T01:33:05;1.57;;;1.47;;
53299;SDS011;39187;48.476;8.310;2024-01-06T01:35:30;5.13;;;1.70;;
53299;SDS011;39187;48.476;8.310;2024-01-06T01:37:56;2.30;;;1.73;;
53299;SDS011;39187;48.476;8.310;2024-01-06T01:40:21;4.67;;;1.77;;
53299;SDS011;39187;48.476;8.310;2024-01-06T01:42:47;5.07;;;1.83;;
53299;SDS011;39187;48.476;8.310;2024-01-06T01:45:12;2.67;;;1.80;;
53299;SDS011;39187;48.476;8.310;2024-01-06T01:47:38;5.73;;;1.70;;
53299;SDS011;39187;48.476;8.310;2024-01-06T01:50:04;2.67;;;1.80;;
53299;SDS011;39187;48.476;8.310;2024-01-06T01:52:30;4.27;;;1.63;;
53299;SDS011;39187;48.476;8.310;2024-01-06T01:54:57;2.53;;;2.10;;
53299;SDS011;39187;48.476;8.310;2024-01-06T01:57:24;5.73;;;1.90;;
53299;SDS011;39187;48.476;8.310;2024-01-06T01:59:50;6.53;;;2.07;;
53299;SDS011;39187;48.476;8.310;2024-01-06T02:02:18;3.03;;;1.50;;
53299;SDS011;39187;48.476;8.310;2024-01-06T02:04:44;5.53;;;2.27;;
53299;SDS011;39187;48.476;8.310;2024-01-06T02:07:10;1.53;;;1.43;;
53299;SDS011;39187;48.476;8.310;2024-01-06T02:09:36;8.60;;;1.90;;
53299;SDS011;39187;48.476;8.310;2024-01-06T02:12:02;1.63;;;1.40;;
53299;SDS011;39187;48.476;8.310;2024-01-06T02:14:28;2.20;;;1.80;;
53299;SDS011;39187;48.476;8.310;2024-01-06T02:16:53;7.47;;;2.53;;
53299;SDS011;39187;48.476;8.310;2024-01-06T02:19:19;2.43;;;1.93;;
53299;SDS011;39187;48.476;8.310;2024-01-06T02:21:48;2.60;;;1.47;;
53299;SDS011;39187;48.476;8.310;2024-01-06T02:24:16;2.97;;;1.80;;
53299;SDS011;39187;48.476;8.310;2024-01-06T02:26:41;8.43;;;2.70;;
53299;SDS011;39187;48.476;8.310;2024-01-06T02:29:07;2.50;;;2.30;;
53299;SDS011;39187;48.476;8.310;2024-01-06T02:31:32;10.23;;;1.70;;
53299;SDS011;39187;48.476;8.310;2024-01-06T02:33:57;1.83;;;1.73;;
53299;SDS011;39187;48.476;8.310;2024-01-06T02:36:23;11.33;;;2.10;;
53299;SDS011;39187;48.476;8.310;2024-01-06T02:38:48;3.03;;;1.90;;
53299;SDS011;39187;48.476;8.310;2024-01-06T02:41:14;3.20;;;2.40;;
53299;SDS011;39187;48.476;8.310;2024-01-06T02:43:39;4.10;;;2.00;;
53299;SDS011;39187;48.476;8.310;2024-01-06T02:46:06;13.00;;;3.30;;
53299;SDS011;39187;48.476;8.310;2024-01-06T02:48:32;3.90;;;1.97;;
53299;SDS011;39187;48.476;8.310;2024-01-06T02:50:57;7.10;;;2.60;;
53299;SDS011;39187;48.476;8.310;2024-01-06T02:53:23;7.57;;;1.80;;
53299;SDS011;39187;48.476;8.310;2024-01-06T02:55:48;2.17;;;2.07;;
53299;SDS011;39187;48.476;8.310;2024-01-06T02:58:14;2.30;;;2.10;;
53299;SDS011;39187;48.476;8.310;2024-01-06T03:00:39;3.93;;;2.30;;
53299;SDS011;39187;48.476;8.310;2024-01-06T03:03:05;6.00;;;2.77;;
53299;SDS011;39187;48.476;8.310;2024-01-06T03:05:30;3.83;;;2.80;;
53299;SDS011;39187;48.476;8.310;2024-01-06T03:07:56;3.07;;;2.27;;
53299;SDS011;39187;48.476;8.310;2024-01-06T03:10:22;18.23;;;3.13;;
53299;SDS011;39187;48.476;8.310;2024-01-06T03:12:48;8.27;;;2.70;;
53299;SDS011;39187;48.476;8.310;2024-01-06T03:15:13;6.93;;;2.40;;
53299;SDS011;39187;48.476;8.310;2024-01-06T03:17:39;4.63;;;2.70;;
53299;SDS011;39187;48.476;8.310;2024-01-06T03:20:04;2.60;;;2.37;;
53299;SDS011;39187;48.476;8.310;2024-01-06T03:22:30;4.13;;;2.40;;
53299;SDS011;39187;48.476;8.310;2024-01-06T03:24:56;2.33;;;2.13;;
53299;SDS011;39187;48.476;8.310;2024-01-06T03:27:21;2.63;;;2.43;;
53299;SDS011;39187;48.476;8.310;2024-01-06T03:29:47;7.80;;;2.57;;
53299;SDS011;39187;48.476;8.310;2024-01-06T03:32:12;8.03;;;3.00;;
53299;SDS011;39187;48.476;8.310;2024-01-06T03:34:38;6.83;;;3.13;;
53299;SDS011;39187;48.476;8.310;2024-01-06T03:37:05;2.07;;;1.90;;
53299;SDS011;39187;48.476;8.310;2024-01-06T03:39:31;3.07;;;2.17;;
53299;SDS011;39187;48.476;8.310;2024-01-06T03:41:56;4.33;;;1.50;;
53299;SDS011;39187;48.476;8.310;2024-01-06T03:44:22;3.17;;;1.80;;
53299;SDS011;39187;48.476;8.310;2024-01-06T03:46:47;2.77;;;1.77;;
53299;SDS011;39187;48.476;8.310;2024-01-06T03:49:13;2.13;;;2.03;;
53299;SDS011;39187;48.476;8.310;2024-01-06T03:51:38;6.10;;;2.30;;
53299;SDS011;39187;48.476;8.310;2024-01-06T03:54:04;1.87;;;1.77;;
53299;SDS011;39187;48.476;8.310;2024-01-06T03:56:29;7.00;;;1.80;;
53299;SDS011;39187;48.476;8.310;2024-01-06T03:58:55;6.60;;;2.63;;
53299;SDS011;39187;48.476;8.310;2024-01-06T04:01:20;2.43;;;2.23;;
53299;SDS011;39187;48.476;8.310;2024-01-06T04:03:46;4.90;;;1.63;;
53299;SDS011;39187;48.476;8.310;2024-01-06T04:06:12;4.00;;;2.03;;
53299;SDS011;39187;48.476;8.310;2024-01-06T04:08:39;2.00;;;1.80;;
53299;SDS011;39187;48.476;8.310;2024-01-06T04:11:05;2.40;;;1.63;;
53299;SDS011;39187;48.476;8.310;2024-01-06T04:13:31;3.57;;;1.90;;
53299;SDS011;39187;48.476;8.310;2024-01-06T04:15:56;1.57;;;1.47;;
53299;SDS011;39187;48.476;8.310;2024-01-06T04:18:22;3.17;;;1.63;;
53299;SDS011;39187;48.476;8.310;2024-01-06T04:20:47;1.40;;;1.30;;
53299;SDS011;39187;48.476;8.310;2024-01-06T04:23:13;2.23;;;1.40;;
53299;SDS011;39187;48.476;8.310;2024-01-06T04:25:38;4.07;;;1.77;;
53299;SDS011;39187;48.476;8.310;2024-01-06T04:28:04;1.97;;;1.60;;
53299;SDS011;39187;48.476;8.310;2024-01-06T04:30:30;1.47;;;1.37;;
53299;SDS011;39187;48.476;8.310;2024-01-06T04:32:55;5.13;;;1.73;;
53299;SDS011;39187;48.476;8.310;2024-01-06T04:35:22;2.60;;;1.37;;
53299;SDS011;39187;48.476;8.310;2024-01-06T04:37:48;3.80;;;1.90;;
53299;SDS011;39187;48.476;8.310;2024-01-06T04:40:13;1.93;;;1.70;;
53299;SDS011;39187;48.476;8.310;2024-01-06T04:42:39;3.43;;;1.70;;
53299;SDS011;39187;48.476;8.310;2024-01-06T04:45:05;4.60;;;1.70;;
53299;SDS011;39187;48.476;8.310;2024-01-06T04:47:31;2.57;;;1.73;;
53299;SDS011;39187;48.476;8.310;2024-01-06T04:49:56;3.40;;;1.37;;
53299;SDS011;39187;48.476;8.310;2024-01-06T04:52:22;11.73;;;2.10;;
53299;SDS011;39187;48.476;8.310;2024-01-06T04:54:48;3.03;;;1.77;;
53299;SDS011;39187;48.476;8.310;2024-01-06T04:57:13;5.43;;;2.50;;
53299;SDS011;39187;48.476;8.310;2024-01-06T04:59:39;2.93;;;1.87;;
53299;SDS011;39187;48.476;8.310;2024-01-06T05:02:05;7.40;;;2.13;;
53299;SDS011;39187;48.476;8.310;2024-01-06T05:04:31;6.30;;;2.20;;
53299;SDS011;39187;48.476;8.310;2024-01-06T05:06:58;13.60;;;2.67;;
53299;SDS011;39187;48.476;8.310;2024-01-06T05:09:24;2.87;;;2.77;;
53299;SDS011;39187;48.476;8.310;2024-01-06T05:11:50;2.80;;;2.60;;
53299;SDS011;39187;48.476;8.310;2024-01-06T05:14:16;2.37;;;2.27;;
53299;SDS011;39187;48.476;8.310;2024-01-06T05:16:41;1.67;;;1.57;;
53299;SDS011;39187;48.476;8.310;2024-01-06T05:19:07;3.30;;;1.83;;
53299;SDS011;39187;48.476;8.310;2024-01-06T05:21:34;1.70;;;1.60;;
53299;SDS011;39187;48.476;8.310;2024-01-06T05:24:00;2.03;;;1.93;;
53299;SDS011;39187;48.476;8.310;2024-01-06T05:26:25;2.67;;;1.60;;
53299;SDS011;39187;48.476;8.310;2024-01-06T05:28:51;4.50;;;1.60;;
53299;SDS011;39187;48.476;8.310;2024-01-06T05:31:17;1.50;;;1.40;;
53299;SDS011;39187;48.476;8.310;2024-01-06T05:33:43;1.60;;;1.50;;
53299;SDS011;39187;48.476;8.310;2024-01-06T05:36:09;3.07;;;1.27;;
53299;SDS011;39187;48.476;8.310;2024-01-06T05:38:35;1.60;;;1.50;;
53299;SDS011;39187;48.476;8.310;2024-01-06T05:41:01;2.90;;;1.70;;
53299;SDS011;39187;48.476;8.310;2024-01-06T05:43:27;4.40;;;2.03;;
53299;SDS011;39187;48.476;8.310;2024-01-06T05:45:52;1.70;;;1.60;;
53299;SDS011;39187;48.476;8.310;2024-01-06T05:48:18;1.27;;;1.17;;
53299;SDS011;39187;48.476;8.310;2024-01-06T05:50:43;3.63;;;1.83;;
53299;SDS011;39187;48.476;8.310;2024-01-06T05:53:09;2.33;;;1.30;;
53299;SDS011;39187;48.476;8.310;2024-01-06T05:55:35;3.53;;;1.20;;
53299;SDS011;39187;48.476;8.310;2024-01-06T05:58:01;4.43;;;1.73;;
53299;SDS011;39187;48.476;8.310;2024-01-06T06:00:26;1.70;;;1.60;;
53299;SDS011;39187;48.476;8.310;2024-01-06T06:02:52;1.57;;;1.47;;
53299;SDS011;39187;48.476;8.310;2024-01-06T06:05:18;6.50;;;1.60;;
53299;SDS011;39187;48.476;8.310;2024-01-06T06:07:43;4.77;;;2.20;;
53299;SDS011;39187;48.476;8.310;2024-01-06T06:10:09;7.30;;;1.70;;
53299;SDS011;39187;48.476;8.310;2024-01-06T06:12:36;1.60;;;1.37;;
53299;SDS011;39187;48.476;8.310;2024-01-06T06:15:02;6.50;;;2.43;;
53299;SDS011;39187;48.476;8.310;2024-01-06T06:17:32;3.93;;;1.80;;
53299;SDS011;39187;48.476;8.310;2024-01-06T06:19:58;2.60;;;1.33;;
53299;SDS011;39187;48.476;8.310;2024-01-06T06:22:24;2.23;;;2.03;;
53299;SDS011;39187;48.476;8.310;2024-01-06T06:24:58;6.70;;;1.70;;
53299;SDS011;39187;48.476;8.310;2024-01-06T06:27:25;3.07;;;1.97;;
53299;SDS011;39187;48.476;8.310;2024-01-06T06:29:51;4.93;;;1.83;;
53299;SDS011;39187;48.476;8.310;2024-01-06T06:32:17;1.90;;;1.70;;
53299;SDS011;39187;48.476;8.310;2024-01-06T06:34:43;2.17;;;1.53;;
53299;SDS011;39187;48.476;8.310;2024-01-06T06:37:08;2.83;;;1.80;;
53299;SDS011;39187;48.476;8.310;2024-01-06T06:39:34;2.30;;;1.60;;
53299;SDS011;39187;48.476;8.310;2024-01-06T06:42:00;2.57;;;1.90;;
53299;SDS011;39187;48.476;8.310;2024-01-06T06:44:26;2.67;;;2.00;;
53299;SDS011;39187;48.476;8.310;2024-01-06T06:46:52;2.20;;;2.00;;
53299;SDS011;39187;48.476;8.310;2024-01-06T06:49:18;3.33;;;1.93;;
53299;SDS011;39187;48.476;8.310;2024-01-06T06:51:43;1.60;;;1.50;;
53299;SDS011;39187;48.476;8.310;2024-01-06T06:54:13;2.33;;;1.77;;
53299;SDS011;39187;48.476;8.310;2024-01-06T06:56:41;1.87;;;1.77;;
53299;SDS011;39187;48.476;8.310;2024-01-06T06:59:09;2.00;;;1.90;;
53299;SDS011;39187;48.476;8.310;2024-01-06T07:01:34;6.20;;;2.30;;
53299;SDS011;39187;48.476;8.310;2024-01-06T07:04:00;4.83;;;2.80;;
53299;SDS011;39187;48.476;8.310;2024-01-06T07:06:27;2.63;;;2.50;;
53299;SDS011;39187;48.476;8.310;2024-01-06T07:08:53;2.20;;;2.10;;
53299;SDS011;39187;48.476;8.310;2024-01-06T07:11:19;2.27;;;2.03;;
53299;SDS011;39187;48.476;8.310;2024-01-06T07:13:45;3.37;;;2.53;;
53299;SDS011;39187;48.476;8.310;2024-01-06T07:16:10;2.50;;;2.40;;
53299;SDS011;39187;48.476;8.310;2024-01-06T07:18:36;1.70;;;1.60;;
53299;SDS011;39187;48.476;8.310;2024-01-06T07:21:04;1.97;;;1.87;;
53299;SDS011;39187;48.476;8.310;2024-01-06T07:23:31;2.10;;;1.90;;
53299;SDS011;39187;48.476;8.310;2024-01-06T07:25:57;6.30;;;2.10;;
53299;SDS011;39187;48.476;8.310;2024-01-06T07:28:23;2.73;;;1.87;;
53299;SDS011;39187;48.476;8.310;2024-01-06T07:30:49;1.90;;;1.80;;
53299;SDS011;39187;48.476;8.310;2024-01-06T07:33:14;1.93;;;1.83;;
53299;SDS011;39187;48.476;8.310;2024-01-06T07:35:40;2.20;;;1.93;;
53299;SDS011;39187;48.476;8.310;2024-01-06T07:38:11;2.73;;;1.77;;
53299;SDS011;39187;48.476;8.310;2024-01-06T07:40:37;3.70;;;2.17;;
53299;SDS011;39187;48.476;8.310;2024-01-06T07:43:03;3.83;;;3.40;;
53299;SDS011;39187;48.476;8.310;2024-01-06T07:45:29;2.23;;;2.13;;
53299;SDS011;39187;48.476;8.310;2024-01-06T07:47:56;2.87;;;2.60;;
53299;SDS011;39187;48.476;8.310;2024-01-06T07:50:22;2.13;;;2.03;;
53299;SDS011;39187;48.476;8.310;2024-01-06T07:52:48;2.23;;;2.13;;
53299;SDS011;39187;48.476;8.310;2024-01-06T07:55:13;2.23;;;2.10;;
53299;SDS011;39187;48.476;8.310;2024-01-06T07:57:39;2.90;;;2.57;;
53299;SDS011;39187;48.476;8.310;2024-01-06T08:00:04;1.83;;;1.73;;
53299;SDS011;39187;48.476;8.310;2024-01-06T08:02:30;4.00;;;1.57;;
53299;SDS011;39187;48.476;8.310;2024-01-06T08:04:56;3.73;;;1.53;;
53299;SDS011;39187;48.476;8.310;2024-01-06T08:07:22;1.50;;;1.40;;
53299;SDS011;39187;48.476;8.310;2024-01-06T08:09:48;4.70;;;1.73;;
53299;SDS011;39187;48.476;8.310;2024-01-06T08:12:14;1.70;;;1.60;;
53299;SDS011;39187;48.476;8.310;2024-01-06T08:14:40;2.93;;;1.90;;
53299;SDS011;39187;48.476;8.310;2024-01-06T08:17:05;2.10;;;2.00;;
53299;SDS011;39187;48.476;8.310;2024-01-06T08:19:31;3.30;;;1.83;;
53299;SDS011;39187;48.476;8.310;2024-01-06T08:21:58;1.50;;;1.40;;
53299;SDS011;39187;48.476;8.310;2024-01-06T08:24:24;1.93;;;1.83;;
53299;SDS011;39187;48.476;8.310;2024-01-06T08:26:50;2.73;;;1.67;;
53299;SDS011;39187;48.476;8.310;2024-01-06T08:29:15;1.87;;;1.77;;
53299;SDS011;39187;48.476;8.310;2024-01-06T08:31:41;3.53;;;1.57;;
53299;SDS011;39187;48.476;8.310;2024-01-06T08:34:07;2.40;;;2.23;;
53299;SDS011;39187;48.476;8.310;2024-01-06T08:36:33;4.77;;;1.57;;
53299;SDS011;39187;48.476;8.310;2024-01-06T08:38:59;2.23;;;2.10;;
53299;SDS011;39187;48.476;8.310;2024-01-06T08:41:25;2.17;;;2.07;;
53299;SDS011;39187;48.476;8.310;2024-01-06T08:43:51;2.60;;;2.50;;
53299;SDS011;39187;48.476;8.310;2024-01-06T08:46:16;3.23;;;2.00;;
53299;SDS011;39187;48.476;8.310;2024-01-06T08:48:42;2.20;;;2.10;;
53299;SDS011;39187;48.476;8.310;2024-01-06T08:51:08;2.40;;;2.20;;
53299;SDS011;39187;48.476;8.310;2024-01-06T08:53:33;2.00;;;1.90;;
53299;SDS011;39187;48.476;8.310;2024-01-06T08:55:59;1.70;;;1.60;;
53299;SDS011;39187;48.476;8.310;2024-01-06T08:58:24;1.10;;;1.10;;
53299;SDS011;39187;48.476;8.310;2024-01-06T09:00:50;1.87;;;1.77;;
53299;SDS011;39187;48.476;8.310;2024-01-06T09:03:16;1.57;;;1.47;;
53299;SDS011;39187;48.476;8.310;2024-01-06T09:05:42;1.73;;;1.63;;
53299;SDS011;39187;48.476;8.310;2024-01-06T09:08:07;1.80;;;1.60;;
53299;SDS011;39187;48.476;8.310;2024-01-06T09:10:33;1.33;;;1.33;;
53299;SDS011;39187;48.476;8.310;2024-01-06T09:12:58;1.60;;;1.50;;
53299;SDS011;39187;48.476;8.310;2024-01-06T09:15:25;3.47;;;1.60;;
53299;SDS011;39187;48.476;8.310;2024-01-06T09:17:50;1.97;;;1.87;;
53299;SDS011;39187;48.476;8.310;2024-01-06T09:20:16;2.07;;;1.87;;
53299;SDS011;39187;48.476;8.310;2024-01-06T09:22:42;1.83;;;1.73;;
53299;SDS011;39187;48.476;8.310;2024-01-06T09:25:08;2.00;;;1.90;;
53299;SDS011;39187;48.476;8.310;2024-01-06T09:27:33;2.57;;;1.70;;
53299;SDS011;39187;48.476;8.310;2024-01-06T09:29:59;8.83;;;1.90;;
53299;SDS011;39187;48.476;8.310;2024-01-06T09:32:24;2.43;;;2.33;;
53299;SDS011;39187;48.476;8.310;2024-01-06T09:34:50;1.70;;;1.60;;
53299;SDS011;39187;48.476;8.310;2024-01-06T09:37:16;1.50;;;1.50;;
53299;SDS011;39187;48.476;8.310;2024-01-06T09:39:41;1.60;;;1.50;;
53299;SDS011;39187;48.476;8.310;2024-01-06T09:42:07;1.40;;;1.40;;
53299;SDS011;39187;48.476;8.310;2024-01-06T09:44:33;1.40;;;1.30;;
53299;SDS011;39187;48.476;8.310;2024-01-06T09:46:59;1.40;;;1.40;;
53299;SDS011;39187;48.476;8.310;2024-01-06T09:49:28;1.80;;;1.70;;
53299;SDS011;39187;48.476;8.310;2024-01-06T09:52:00;1.67;;;1.67;;
53299;SDS011;39187;48.476;8.310;2024-01-06T09:54:28;1.43;;;1.43;;
53299;SDS011;39187;48.476;8.310;2024-01-06T09:56:58;1.63;;;1.53;;
53299;SDS011;39187;48.476;8.310;2024-01-06T09:59:26;1.33;;;1.27;;
53299;SDS011;39187;48.476;8.310;2024-01-06T10:01:56;1.60;;;1.50;;
53299;SDS011;39187;48.476;8.310;2024-01-06T10:04:22;2.27;;;2.17;;
53299;SDS011;39187;48.476;8.310;2024-01-06T10:06:49;1.67;;;1.57;;
53299;SDS011;39187;48.476;8.310;2024-01-06T10:09:14;2.13;;;2.03;;
53299;SDS011;39187;48.476;8.310;2024-01-06T10:11:40;1.73;;;1.63;;
53299;SDS011;39187;48.476;8.310;2024-01-06T10:14:06;1.77;;;1.50;;
53299;SDS011;39187;48.476;8.310;2024-01-06T10:16:32;1.93;;;1.87;;
53299;SDS011;39187;48.476;8.310;2024-01-06T10:19:00;1.87;;;1.77;;
53299;SDS011;39187;48.476;8.310;2024-01-06T10:21:26;2.47;;;2.37;;
53299;SDS011;39187;48.476;8.310;2024-01-06T10:23:53;2.50;;;2.30;;
53299;SDS011;39187;48.476;8.310;2024-01-06T10:26:19;3.37;;;2.50;;
53299;SDS011;39187;48.476;8.310;2024-01-06T10:28:45;2.07;;;1.97;;
53299;SDS011;39187;48.476;8.310;2024-01-06T10:31:10;1.80;;;1.70;;
53299;SDS011;39187;48.476;8.310;2024-01-06T10:33:38;2.10;;;2.00;;
53299;SDS011;39187;48.476;8.310;2024-01-06T10:36:04;2.13;;;2.03;;
53299;SDS011;39187;48.476;8.310;2024-01-06T10:38:32;1.97;;;1.87;;
53299;SDS011;39187;48.476;8.310;2024-01-06T10:41:00;2.03;;;1.67;;
53299;SDS011;39187;48.476;8.310;2024-01-06T10:43:32;2.00;;;1.90;;
53299;SDS011;39187;48.476;8.310;2024-01-06T10:46:04;2.03;;;1.93;;
53299;SDS011;39187;48.476;8.310;2024-01-06T10:48:31;1.70;;;1.70;;
53299;SDS011;39187;48.476;8.310;2024-01-06T10:51:00;1.50;;;1.40;;
53299;SDS011;39187;48.476;8.310;2024-01-06T10:53:32;1.30;;;1.30;;
53299;SDS011;39187;48.476;8.310;2024-01-06T10:55:58;2.07;;;1.73;;
53299;SDS011;39187;48.476;8.310;2024-01-06T10:58:24;1.93;;;1.83;;
53299;SDS011;39187;48.476;8.310;2024-01-06T11:00:50;1.60;;;1.50;;
53299;SDS011;39187;48.476;8.310;2024-01-06T11:03:16;1.90;;;1.80;;
53299;SDS011;39187;48.476;8.310;2024-01-06T11:05:43;1.47;;;1.47;;
53299;SDS011;39187;48.476;8.310;2024-01-06T11:08:09;1.77;;;1.67;;
53299;SDS011;39187;48.476;8.310;2024-01-06T11:10:36;1.83;;;1.73;;
53299;SDS011;39187;48.476;8.310;2024-01-06T11:13:22;2.20;;;1.30;;
53299;SDS011;39187;48.476;8.310;2024-01-06T11:15:48;1.57;;;1.40;;
53299;SDS011;39187;48.476;8.310;2024-01-06T11:18:34;1.90;;;1.10;;
53299;SDS011;39187;48.476;8.310;2024-01-06T11:24:09;0.87;;;0.87;;
53299;SDS011;39187;48.476;8.310;2024-01-06T11:26:50;0.93;;;0.93;;
53299;SDS011;39187;48.476;8.310;2024-01-06T11:29:17;1.60;;;1.60;;
53299;SDS011;39187;48.476;8.310;2024-01-06T11:32:15;1.00;;;1.00;;
53299;SDS011;39187;48.476;8.310;2024-01-06T11:34:51;1.40;;;1.40;;
53299;SDS011;39187;48.476;8.310;2024-01-06T11:37:50;1.60;;;1.53;;
53299;SDS011;39187;48.476;8.310;2024-01-06T11:43:01;1.70;;;1.60;;
53299;SDS011;39187;48.476;8.310;2024-01-06T11:45:32;2.33;;;2.23;;
53299;SDS011;39187;48.476;8.310;2024-01-06T11:48:00;2.37;;;2.27;;
53299;SDS011;39187;48.476;8.310;2024-01-06T11:50:28;4.10;;;1.77;;
53299;SDS011;39187;48.476;8.310;2024-01-06T11:52:57;2.47;;;2.37;;
53299;SDS011;39187;48.476;8.310;2024-01-06T11:55:24;2.90;;;2.80;;
53299;SDS011;39187;48.476;8.310;2024-01-06T11:57:53;3.20;;;2.90;;
53299;SDS011;39187;48.476;8.310;2024-01-06T12:00:19;2.40;;;2.30;;
53299;SDS011;39187;48.476;8.310;2024-01-06T12:02:45;2.47;;;2.33;;
53299;SDS011;39187;48.476;8.310;2024-01-06T12:05:17;2.00;;;1.90;;
53299;SDS011;39187;48.476;8.310;2024-01-06T12:07:43;1.53;;;1.43;;
53299;SDS011;39187;48.476;8.310;2024-01-06T12:10:20;1.53;;;1.53;;
53299;SDS011;39187;48.476;8.310;2024-01-06T12:15:26;1.37;;;1.27;;
53299;SDS011;39187;48.476;8.310;2024-01-06T12:17:52;1.37;;;1.37;;
53299;SDS011;39187;48.476;8.310;2024-01-06T12:20:18;1.60;;;1.50;;
53299;SDS011;39187;48.476;8.310;2024-01-06T12:22:44;1.33;;;1.33;;
53299;SDS011;39187;48.476;8.310;2024-01-06T12:25:09;1.10;;;1.10;;
53299;SDS011;39187;48.476;8.310;2024-01-06T12:27:35;1.10;;;1.10;;
53299;SDS011;39187;48.476;8.310;2024-01-06T12:30:00;0.97;;;0.97;;
53299;SDS011;39187;48.476;8.310;2024-01-06T12:32:28;1.27;;;1.27;;
53299;SDS011;39187;48.476;8.310;2024-01-06T12:34:53;0.97;;;0.97;;
53299;SDS011;39187;48.476;8.310;2024-01-06T12:37:22;0.90;;;0.90;;
53299;SDS011;39187;48.476;8.310;2024-01-06T12:39:48;0.80;;;0.80;;
53299;SDS011;39187;48.476;8.310;2024-01-06T12:42:15;0.90;;;0.90;;
53299;SDS011;39187;48.476;8.310;2024-01-06T12:44:42;0.90;;;0.90;;
53299;SDS011;39187;48.476;8.310;2024-01-06T12:47:07;1.73;;;0.80;;
53299;SDS011;39187;48.476;8.310;2024-01-06T12:49:33;0.83;;;0.83;;
53299;SDS011;39187;48.476;8.310;2024-01-06T12:51:58;0.70;;;0.70;;
53299;SDS011;39187;48.476;8.310;2024-01-06T12:54:25;0.70;;;0.70;;
53299;SDS011;39187;48.476;8.310;2024-01-06T12:56:50;1.20;;;0.70;;
53299;SDS011;39187;48.476;8.310;2024-01-06T12:59:16;0.70;;;0.70;;
53299;SDS011;39187;48.476;8.310;2024-01-06T13:01:41;0.70;;;0.70;;
53299;SDS011;39187;48.476;8.310;2024-01-06T13:04:08;0.70;;;0.70;;
53299;SDS011;39187;48.476;8.310;2024-01-06T13:06:34;0.77;;;0.77;;
53299;SDS011;39187;48.476;8.310;2024-01-06T13:08:59;0.70;;;0.70;;
53299;SDS011;39187;48.476;8.310;2024-01-06T13:11:27;0.90;;;0.90;;
53299;SDS011;39187;48.476;8.310;2024-01-06T13:13:53;0.80;;;0.80;;
53299;SDS011;39187;48.476;8.310;2024-01-06T13:16:18;0.60;;;0.60;;
53299;SDS011;39187;48.476;8.310;2024-01-06T13:18:44;0.83;;;0.83;;
53299;SDS011;39187;48.476;8.310;2024-01-06T13:21:09;0.90;;;0.90;;
53299;SDS011;39187;48.476;8.310;2024-01-06T13:23:35;0.93;;;0.93;;
53299;SDS011;39187;48.476;8.310;2024-01-06T13:26:00;0.83;;;0.83;;
53299;SDS011;39187;48.476;8.310;2024-01-06T13:28:26;0.90;;;0.90;;
53299;SDS011;39187;48.476;8.310;2024-01-06T13:30:51;1.27;;;1.00;;
53299;SDS011;39187;48.476;8.310;2024-01-06T13:33:17;1.37;;;1.30;;
53299;SDS011;39187;48.476;8.310;2024-01-06T13:35:42;1.20;;;1.20;;
53299;SDS011;39187;48.476;8.310;2024-01-06T13:38:08;1.20;;;1.20;;
53299;SDS011;39187;48.476;8.310;2024-01-06T13:40:34;1.00;;;1.00;;
53299;SDS011;39187;48.476;8.310;2024-01-06T13:42:59;1.00;;;1.00;;
53299;SDS011;39187;48.476;8.310;2024-01-06T13:45:25;1.00;;;1.00;;
53299;SDS011;39187;48.476;8.310;2024-01-06T13:47:51;1.37;;;1.27;;
53299;SDS011;39187;48.476;8.310;2024-01-06T13:50:17;1.47;;;1.47;;
53299;SDS011;39187;48.476;8.310;2024-01-06T13:52:43;1.17;;;1.17;;
53299;SDS011;39187;48.476;8.310;2024-01-06T13:55:10;2.00;;;1.80;;
53299;SDS011;39187;48.476;8.310;2024-01-06T13:57:36;1.00;;;1.00;;
53299;SDS011;39187;48.476;8.310;2024-01-06T14:00:07;1.10;;;1.10;;
53299;SDS011;39187;48.476;8.310;2024-01-06T14:02:43;1.17;;;1.07;;
53299;SDS011;39187;48.476;8.310;2024-01-06T14:05:09;1.00;;;1.00;;
53299;SDS011;39187;48.476;8.310;2024-01-06T14:07:37;0.90;;;0.90;;
53299;SDS011;39187;48.476;8.310;2024-01-06T14:10:10;0.70;;;0.70;;
53299;SDS011;39187;48.476;8.310;2024-01-06T14:12:39;0.80;;;0.80;;
53299;SDS011;39187;48.476;8.310;2024-01-06T14:15:06;0.70;;;0.70;;
53299;SDS011;39187;48.476;8.310;2024-01-06T14:17:32;0.90;;;0.90;;
53299;SDS011;39187;48.476;8.310;2024-01-06T14:19:57;0.87;;;0.87;;
53299;SDS011;39187;48.476;8.310;2024-01-06T14:22:23;1.00;;;1.00;;
53299;SDS011;39187;48.476;8.310;2024-01-06T14:24:48;0.90;;;0.90;;
53299;SDS011;39187;48.476;8.310;2024-01-06T14:27:15;0.90;;;0.90;;
53299;SDS011;39187;48.476;8.310;2024-01-06T14:29:41;0.80;;;0.80;;
53299;SDS011;39187;48.476;8.310;2024-01-06T14:32:07;0.90;;;0.90;;
53299;SDS011;39187;48.476;8.310;2024-01-06T14:34:32;0.80;;;0.80;;
53299;SDS011;39187;48.476;8.310;2024-01-06T14:36:59;0.90;;;0.90;;
53299;SDS011;39187;48.476;8.310;2024-01-06T14:39:24;0.70;;;0.70;;
53299;SDS011;39187;48.476;8.310;2024-01-06T14:41:50;1.00;;;0.90;;
53299;SDS011;39187;48.476;8.310;2024-01-06T14:44:17;1.17;;;1.10;;
53299;SDS011;39187;48.476;8.310;2024-01-06T14:46:45;1.33;;;1.30;;
53299;SDS011;39187;48.476;8.310;2024-01-06T14:49:15;1.00;;;1.00;;
53299;SDS011;39187;48.476;8.310;2024-01-06T14:51:44;1.03;;;1.03;;